Time;durP1;ratioP1;P1;durP2;ratioP2;P2;SDS_P1;SDS_P2;PMS_P1;PMS_P2;Temp;Humidity;BMP_temperature;BMP_pressure;BME280_temperature;BME280_humidity;BME280_pressure;Samples;Min_cycle;Max_cycle;Signal;HPM_P1;HPM_P2
2021/09/13 00:01:02;;;;;;;5.88;3.13;;;18.50;87.50;;;;;;4994489;28;20032;-75
2021/09/13 00:03:29;;;;;;;7.70;3.58;;;18.50;87.30;;;;;;4993059;28;20031;-74
2021/09/13 00:05:56;;;;;;;5.30;3.20;;;18.70;87.10;;;;;;4994529;28;20503;-75
2021/09/13 00:08:24;;;;;;;4.10;2.80;;;19.20;83.90;;;;;;4994082;28;20112;-76
2021/09/13 00:10:51;;;;;;;5.65;2.90;;;19.50;84.30;;;;;;4994497;28;20030;-74
2021/09/13 00:13:19;;;;;;;6.30;2.90;;;19.40;85.40;;;;;;4992837;28;20072;-76
2021/09/13 00:15:46;;;;;;;7.15;3.30;;;19.00;85.10;;;;;;4992793;28;20121;-75
2021/09/13 00:18:13;;;;;;;6.97;3.03;;;18.70;87.40;;;;;;4994134;28;20019;-75
2021/09/13 00:20:41;;;;;;;5.80;2.90;;;18.10;88.20;;;;;;4994145;28;20502;-75
2021/09/13 00:23:08;;;;;;;8.40;2.80;;;17.70;89.10;;;;;;4993988;28;20026;-74
2021/09/13 00:25:35;;;;;;;5.30;2.42;;;17.50;90.70;;;;;;4993878;28;20109;-75
2021/09/13 00:28:03;;;;;;;6.63;3.13;;;17.20;90.40;;;;;;4993867;28;20058;-75
2021/09/13 00:30:30;;;;;;;6.38;3.00;;;17.00;91.20;;;;;;4992977;28;20121;-74
2021/09/13 00:32:57;;;;;;;7.40;3.33;;;16.90;93.60;;;;;;4992370;28;20066;-75
2021/09/13 00:35:25;;;;;;;5.97;3.13;;;16.80;95.00;;;;;;4993692;28;20026;-74
2021/09/13 00:37:53;;;;;;;8.43;3.42;;;16.50;97.30;;;;;;4992328;28;20110;-74
2021/09/13 00:40:20;;;;;;;7.45;3.58;;;16.40;99.60;;;;;;4993831;28;20448;-75
2021/09/13 00:42:47;;;;;;;4.97;3.50;;;16.40;99.20;;;;;;4993623;28;20034;-75
2021/09/13 00:45:15;;;;;;;7.40;3.45;;;16.30;99.90;;;;;;4993512;28;20368;-74
2021/09/13 00:47:42;;;;;;;13.50;4.25;;;16.40;99.90;;;;;;4992276;28;20076;-75
2021/09/13 00:50:10;;;;;;;7.90;3.72;;;16.50;99.90;;;;;;4993498;28;20026;-74
2021/09/13 00:52:38;;;;;;;7.53;3.40;;;16.30;99.90;;;;;;4993334;28;20026;-74
2021/09/13 00:55:07;;;;;;;6.10;3.80;;;16.70;99.90;;;;;;4992138;28;20401;-75
2021/09/13 00:57:35;;;;;;;5.30;3.58;;;17.20;99.90;;;;;;4993386;28;20097;-75
2021/09/13 01:00:05;;;;;;;8.43;3.40;;;17.40;99.40;;;;;;4993693;28;20019;-73
2021/09/13 01:02:33;;;;;;;4.37;3.40;;;17.90;97.00;;;;;;4993247;28;20464;-73
2021/09/13 01:05:00;;;;;;;5.38;3.20;;;18.40;95.30;;;;;;4993219;28;20263;-73
2021/09/13 01:07:30;;;;;;;4.88;3.30;;;18.70;92.40;;;;;;4994722;28;20073;-73
2021/09/13 01:09:59;;;;;;;8.20;4.00;;;19.30;90.10;;;;;;4996138;28;20571;-73
2021/09/13 01:12:26;;;;;;;3.78;3.00;;;19.40;86.10;;;;;;4997105;28;20026;-73
2021/09/13 01:14:54;;;;;;;4.80;2.90;;;19.20;84.00;;;;;;4997196;28;20026;-73
2021/09/13 01:17:21;;;;;;;8.35;3.30;;;18.80;86.40;;;;;;4995980;28;20031;-74
2021/09/13 01:19:48;;;;;;;5.93;3.40;;;18.50;88.60;;;;;;4997192;28;20539;-73
2021/09/13 01:22:19;;;;;;;6.22;3.28;;;18.50;88.90;;;;;;4995888;28;20081;-73
2021/09/13 01:24:47;;;;;;;5.85;2.88;;;17.90;88.40;;;;;;4997095;28;20022;-73
2021/09/13 01:27:15;;;;;;;6.82;2.58;;;17.50;88.70;;;;;;4996656;28;20452;-73
2021/09/13 01:29:42;;;;;;;12.77;3.13;;;17.20;90.20;;;;;;4997104;28;20491;-73
2021/09/13 01:32:11;;;;;;;6.60;2.88;;;17.10;90.60;;;;;;4996989;28;20061;-73
2021/09/13 01:34:38;;;;;;;5.50;2.40;;;17.00;91.80;;;;;;4995619;28;20029;-73
2021/09/13 01:37:05;;;;;;;3.95;2.47;;;16.80;91.30;;;;;;4997101;28;20533;-73
2021/09/13 01:39:33;;;;;;;3.40;2.80;;;16.60;81.10;;;;;;4997076;28;20468;-74
2021/09/13 01:42:00;;;;;;;3.03;2.72;;;16.60;85.40;;;;;;4996799;28;20018;-73
2021/09/13 01:44:28;;;;;;;3.67;3.13;;;16.70;88.60;;;;;;4996741;28;20014;-73
2021/09/13 01:46:55;;;;;;;5.50;2.88;;;16.70;92.20;;;;;;4996618;28;20026;-73
2021/09/13 01:49:23;;;;;;;7.68;2.85;;;16.70;91.40;;;;;;4996645;28;20076;-73
2021/09/13 01:51:51;;;;;;;4.70;2.40;;;16.70;92.80;;;;;;4995445;28;20052;-74
2021/09/13 01:54:19;;;;;;;7.68;2.45;;;16.80;92.80;;;;;;4995223;28;20041;-72
2021/09/13 01:56:46;;;;;;;6.43;2.13;;;16.90;92.70;;;;;;4996519;28;20391;-73
2021/09/13 01:59:13;;;;;;;5.05;2.60;;;17.10;92.00;;;;;;4996486;28;20029;-73
2021/09/13 02:01:41;;;;;;;3.33;2.47;;;17.20;92.10;;;;;;4995163;28;20023;-73
2021/09/13 02:04:09;;;;;;;5.40;3.20;;;17.20;92.70;;;;;;4996383;28;20133;-73
2021/09/13 02:06:36;;;;;;;5.13;2.70;;;17.50;92.70;;;;;;4995060;28;20026;-73
2021/09/13 02:09:04;;;;;;;5.90;3.20;;;17.50;92.60;;;;;;4996105;28;20045;-74
2021/09/13 02:11:31;;;;;;;4.70;3.00;;;17.60;93.50;;;;;;4995018;28;20121;-73
2021/09/13 02:13:58;;;;;;;7.43;3.13;;;17.60;92.70;;;;;;4996093;28;20022;-73
2021/09/13 02:16:26;;;;;;;3.92;2.80;;;17.40;92.30;;;;;;4996181;28;20462;-73
2021/09/13 02:18:53;;;;;;;5.15;3.10;;;17.30;92.80;;;;;;4995880;28;20018;-73
2021/09/13 02:21:20;;;;;;;3.20;2.80;;;17.10;93.70;;;;;;4994721;28;20030;-73
2021/09/13 02:23:48;;;;;;;10.55;3.10;;;17.00;93.60;;;;;;4994727;28;20066;-72
2021/09/13 02:26:15;;;;;;;5.93;3.20;;;17.00;95.20;;;;;;4995902;28;20022;-72
2021/09/13 02:28:43;;;;;;;4.95;3.10;;;16.80;99.60;;;;;;4994647;28;20022;-72
2021/09/13 02:31:10;;;;;;;7.35;3.38;;;16.60;99.10;;;;;;4995918;28;20387;-73
2021/09/13 02:33:37;;;;;;;8.13;3.55;;;16.50;99.90;;;;;;4994458;28;20061;-73
2021/09/13 02:36:05;;;;;;;7.43;3.00;;;16.40;99.90;;;;;;4995796;28;20022;-73
2021/09/13 02:38:32;;;;;;;6.28;3.58;;;16.50;99.90;;;;;;4994743;28;20352;-74
2021/09/13 02:40:59;;;;;;;7.45;3.40;;;16.50;99.90;;;;;;4994453;28;20027;-72
2021/09/13 02:43:27;;;;;;;6.55;3.40;;;16.30;99.90;;;;;;4994400;28;20442;-72
2021/09/13 02:45:54;;;;;;;5.72;3.00;;;16.40;99.90;;;;;;4995514;28;20076;-73
2021/09/13 02:48:21;;;;;;;7.43;3.15;;;16.60;99.90;;;;;;4995597;28;20413;-72
2021/09/13 02:50:49;;;;;;;8.52;3.65;;;16.60;99.90;;;;;;4995491;28;20026;-73
2021/09/13 02:53:16;;;;;;;6.07;2.70;;;16.80;99.90;;;;;;4994066;28;20425;-72
2021/09/13 02:55:43;;;;;;;3.53;2.60;;;16.90;98.50;;;;;;4994119;28;20027;-74
2021/09/13 02:58:11;;;;;;;3.97;2.60;;;16.90;95.50;;;;;;4995416;28;20022;-72
2021/09/13 03:00:38;;;;;;;3.38;2.75;;;16.90;95.00;;;;;;4994069;28;20057;-73
2021/09/13 03:03:06;;;;;;;5.35;2.88;;;17.00;94.00;;;;;;4995319;28;20026;-73
2021/09/13 03:05:33;;;;;;;5.10;2.67;;;17.10;94.30;;;;;;4995095;28;20030;-73
2021/09/13 03:08:00;;;;;;;8.30;3.10;;;17.20;93.30;;;;;;4995192;28;20033;-73
2021/09/13 03:10:28;;;;;;;8.07;3.30;;;17.30;93.90;;;;;;4995172;28;20039;-73
2021/09/13 03:12:55;;;;;;;4.95;2.60;;;17.50;94.10;;;;;;4995085;28;20490;-73
2021/09/13 03:15:22;;;;;;;8.13;3.00;;;17.70;93.70;;;;;;4993787;28;20026;-73
2021/09/13 03:17:49;;;;;;;6.38;3.58;;;17.40;93.30;;;;;;4995038;28;20026;-72
2021/09/13 03:20:17;;;;;;;5.07;2.70;;;17.40;94.00;;;;;;4994844;28;20089;-73
2021/09/13 03:22:44;;;;;;;4.68;2.85;;;17.30;92.30;;;;;;4993617;28;20038;-73
2021/09/13 03:25:12;;;;;;;9.55;3.10;;;17.30;92.60;;;;;;4993500;28;20032;-73
2021/09/13 03:27:40;;;;;;;5.22;2.60;;;17.30;92.20;;;;;;4994912;28;20129;-73
2021/09/13 03:30:08;;;;;;;3.88;2.85;;;17.10;91.40;;;;;;4992931;28;20034;-73
2021/09/13 03:32:35;;;;;;;5.88;2.70;;;16.90;92.10;;;;;;4994676;28;20476;-73
2021/09/13 03:35:03;;;;;;;5.65;2.50;;;16.90;91.80;;;;;;4994641;28;20022;-73
2021/09/13 03:37:30;;;;;;;5.10;2.40;;;16.90;91.60;;;;;;4994705;28;20023;-73
2021/09/13 03:39:57;;;;;;;8.75;2.97;;;16.90;91.30;;;;;;4993434;28;20030;-74
2021/09/13 03:42:24;;;;;;;3.42;2.60;;;16.80;90.70;;;;;;4994617;28;20467;-73
2021/09/13 03:44:52;;;;;;;6.80;2.72;;;16.90;91.30;;;;;;4993379;28;20026;-74
2021/09/13 03:47:19;;;;;;;4.93;2.40;;;17.00;91.90;;;;;;4993309;28;20060;-72
2021/09/13 03:49:46;;;;;;;7.95;3.67;;;17.00;92.80;;;;;;4993459;28;20081;-73
2021/09/13 03:52:14;;;;;;;6.53;2.50;;;16.90;93.50;;;;;;4993081;28;20030;-72
2021/09/13 03:54:41;;;;;;;5.70;2.90;;;16.70;94.20;;;;;;4994487;28;20085;-72
2021/09/13 03:57:09;;;;;;;5.70;2.95;;;16.50;94.20;;;;;;4994472;28;20014;-72
2021/09/13 03:59:36;;;;;;;8.98;4.00;;;16.30;94.90;;;;;;4994331;28;20406;-72
2021/09/13 04:02:03;;;;;;;5.90;3.30;;;16.40;94.80;;;;;;4992964;28;20027;-71
2021/09/13 04:04:32;;;;;;;8.73;3.33;;;16.40;94.70;;;;;;4994179;28;20106;-73
2021/09/13 04:07:03;;;;;;;8.88;3.33;;;16.40;94.70;;;;;;4994187;28;20025;-72
2021/09/13 04:12:02;;;;;;;7.28;3.10;;;16.50;94.70;;;;;;4994064;28;19906;-72
2021/09/13 04:14:31;;;;;;;5.03;3.20;;;16.30;94.90;;;;;;4993971;28;20027;-74
2021/09/13 04:16:59;;;;;;;3.85;3.03;;;16.30;95.50;;;;;;4994008;28;20101;-72
2021/09/13 04:19:26;;;;;;;7.53;3.30;;;16.50;95.60;;;;;;4992602;28;20030;-72
2021/09/13 04:21:54;;;;;;;5.88;3.08;;;16.50;94.30;;;;;;4993870;28;20057;-72
2021/09/13 04:24:22;;;;;;;9.05;2.88;;;16.80;94.80;;;;;;4993850;28;20088;-71
2021/09/13 04:26:50;;;;;;;4.80;2.65;;;16.60;92.90;;;;;;4993758;28;20027;-73
2021/09/13 04:29:18;;;;;;;6.18;2.92;;;16.60;93.20;;;;;;4992544;28;20030;-73
2021/09/13 04:31:45;;;;;;;3.28;2.67;;;16.60;92.40;;;;;;4992490;28;20034;-74
2021/09/13 04:34:13;;;;;;;6.55;2.60;;;16.60;92.10;;;;;;4993736;28;20019;-73
2021/09/13 04:36:40;;;;;;;7.30;2.53;;;16.50;91.70;;;;;;4993669;28;20026;-73
2021/09/13 04:39:07;;;;;;;3.70;2.30;;;16.40;92.40;;;;;;4992357;28;20069;-73
2021/09/13 04:41:36;;;;;;;9.05;2.67;;;16.40;91.10;;;;;;4993604;28;20026;-72
2021/09/13 04:44:04;;;;;;;7.32;2.65;;;16.40;92.30;;;;;;4993248;28;20494;-72
2021/09/13 04:46:31;;;;;;;4.60;3.08;;;16.30;92.20;;;;;;4993445;28;20018;-72
2021/09/13 04:48:59;;;;;;;3.90;2.85;;;16.20;92.50;;;;;;4993546;28;20025;-71
2021/09/13 04:51:27;;;;;;;5.82;2.65;;;16.00;93.10;;;;;;4992203;28;20034;-71
2021/09/13 04:53:55;;;;;;;4.20;2.55;;;16.00;93.10;;;;;;4993368;28;20073;-71
2021/09/13 04:56:22;;;;;;;5.40;2.78;;;16.00;93.80;;;;;;4992168;28;20542;-72
2021/09/13 04:58:51;;;;;;;4.43;2.72;;;16.10;93.10;;;;;;4992125;28;20049;-72
2021/09/13 05:01:18;;;;;;;5.53;2.85;;;16.20;93.00;;;;;;4992021;28;20117;-72
2021/09/13 05:03:47;;;;;;;7.35;3.33;;;16.20;93.00;;;;;;4993218;28;20113;-71
2021/09/13 05:06:15;;;;;;;5.85;2.80;;;16.20;94.20;;;;;;4992056;28;20080;-71
2021/09/13 05:08:42;;;;;;;4.35;2.40;;;16.20;93.30;;;;;;4991731;28;20042;-71
2021/09/13 05:11:09;;;;;;;4.30;2.50;;;16.20;92.90;;;;;;4993323;28;20018;-72
2021/09/13 05:13:37;;;;;;;4.60;2.53;;;16.00;93.50;;;;;;4993201;28;20030;-72
2021/09/13 05:16:05;;;;;;;4.00;2.40;;;16.00;93.80;;;;;;4993141;28;20018;-72
2021/09/13 05:18:32;;;;;;;4.10;2.38;;;15.80;93.00;;;;;;4993306;28;20050;-73
2021/09/13 05:20:59;;;;;;;4.38;2.20;;;15.90;93.50;;;;;;4991956;28;20053;-73
2021/09/13 05:23:27;;;;;;;4.82;2.20;;;15.80;93.40;;;;;;4993191;28;20034;-72
2021/09/13 05:25:54;;;;;;;4.38;2.58;;;15.60;93.30;;;;;;4993225;28;20018;-72
2021/09/13 05:28:23;;;;;;;3.78;3.38;;;15.50;93.80;;;;;;4993162;28;20113;-72
2021/09/13 05:30:50;;;;;;;4.72;2.55;;;15.30;94.10;;;;;;4993171;28;20049;-73
2021/09/13 05:33:18;;;;;;;5.20;2.70;;;15.40;94.90;;;;;;4993091;28;20026;-72
2021/09/13 05:35:46;;;;;;;7.00;2.67;;;15.50;93.90;;;;;;4991871;28;20022;-73
2021/09/13 05:38:14;;;;;;;10.25;3.00;;;15.60;93.50;;;;;;4991793;28;20542;-73
2021/09/13 05:40:43;;;;;;;3.53;2.83;;;15.90;93.50;;;;;;4993161;28;20037;-72
2021/09/13 05:43:11;;;;;;;3.20;2.70;;;16.10;93.60;;;;;;4991858;28;20065;-73
2021/09/13 05:45:38;;;;;;;4.20;2.90;;;16.10;92.50;;;;;;4991795;28;20030;-72
2021/09/13 05:48:06;;;;;;;3.83;2.90;;;15.90;92.80;;;;;;4993055;28;20026;-72
2021/09/13 05:50:33;;;;;;;4.63;2.63;;;15.90;92.70;;;;;;4992985;28;20113;-72
2021/09/13 05:53:01;;;;;;;3.28;2.80;;;15.80;93.00;;;;;;4992256;28;20093;-71
2021/09/13 05:55:28;;;;;;;4.18;2.80;;;15.80;93.60;;;;;;4996659;28;20077;-71
2021/09/13 05:57:55;;;;;;;5.65;2.88;;;15.80;93.90;;;;;;4996559;28;20030;-73
2021/09/13 06:00:23;;;;;;;5.22;2.95;;;15.70;94.10;;;;;;4996656;28;20026;-73
2021/09/13 06:02:50;;;;;;;7.97;2.80;;;15.60;95.40;;;;;;4996554;28;20072;-73
2021/09/13 06:05:19;;;;;;;4.72;3.10;;;15.50;96.20;;;;;;4994909;28;20117;-72
2021/09/13 06:07:46;;;;;;;5.07;2.90;;;15.40;96.80;;;;;;4996652;28;20537;-73
2021/09/13 06:10:14;;;;;;;7.72;2.80;;;15.20;97.50;;;;;;4996164;28;20071;-73
2021/09/13 06:12:41;;;;;;;4.90;2.50;;;15.00;98.60;;;;;;4996429;28;20033;-73
2021/09/13 06:15:09;;;;;;;5.53;2.60;;;14.90;98.90;;;;;;4996213;28;20080;-74
2021/09/13 06:17:37;;;;;;;8.50;3.10;;;14.90;99.60;;;;;;4994886;28;20098;-72
2021/09/13 06:20:04;;;;;;;6.88;2.92;;;14.80;99.70;;;;;;4994867;28;20019;-72
2021/09/13 06:22:32;;;;;;;4.78;2.80;;;14.80;99.90;;;;;;4994774;28;20026;-73
2021/09/13 06:25:01;;;;;;;5.43;2.90;;;14.80;99.90;;;;;;4996235;28;20129;-74
2021/09/13 06:27:28;;;;;;;5.22;2.95;;;14.70;99.90;;;;;;4996026;28;20026;-73
2021/09/13 06:29:55;;;;;;;4.72;2.78;;;14.70;99.90;;;;;;4995952;28;20054;-73
2021/09/13 06:32:23;;;;;;;4.65;2.88;;;14.50;99.90;;;;;;4994619;28;20026;-73
2021/09/13 06:34:50;;;;;;;5.63;2.90;;;14.50;99.90;;;;;;4994528;28;20395;-73
2021/09/13 06:37:20;;;;;;;4.35;2.95;;;14.30;99.90;;;;;;4994452;28;20025;-73
2021/09/13 06:39:48;;;;;;;7.18;3.58;;;14.20;99.90;;;;;;4995640;28;20077;-74
2021/09/13 06:42:16;;;;;;;3.88;2.80;;;14.10;99.90;;;;;;4995480;28;20023;-72
2021/09/13 06:44:47;;;;;;;6.82;3.08;;;14.10;99.90;;;;;;4994204;28;20046;-72
2021/09/13 06:49:59;;;;;;;5.03;3.08;;;14.10;99.90;;;;;;4995366;28;20018;-72
2021/09/13 06:52:27;;;;;;;5.45;2.50;;;14.10;99.90;;;;;;4995651;28;20029;-73
2021/09/13 06:54:54;;;;;;;6.00;3.35;;;14.00;99.90;;;;;;4995275;28;20018;-72
2021/09/13 06:57:21;;;;;;;6.45;4.10;;;14.00;99.90;;;;;;4994068;28;20061;-72
2021/09/13 06:59:48;;;;;;;6.63;3.55;;;14.00;99.90;;;;;;4994117;28;20037;-72
2021/09/13 07:02:16;;;;;;;7.57;3.65;;;13.80;99.90;;;;;;4995179;28;20101;-73
2021/09/13 07:04:43;;;;;;;6.45;3.38;;;13.90;99.90;;;;;;4994077;28;20046;-73
2021/09/13 07:07:10;;;;;;;4.80;3.08;;;13.90;99.90;;;;;;4995107;28;20026;-73
2021/09/13 07:09:38;;;;;;;3.90;3.15;;;13.90;99.90;;;;;;4994960;28;20042;-72
2021/09/13 07:12:06;;;;;;;6.55;3.42;;;13.80;99.90;;;;;;4993559;28;20029;-73
2021/09/13 07:14:33;;;;;;;4.35;3.20;;;13.70;99.90;;;;;;4994942;28;20073;-73
2021/09/13 07:17:01;;;;;;;3.80;2.97;;;13.60;99.90;;;;;;4994902;28;20050;-71
2021/09/13 07:19:28;;;;;;;5.68;2.85;;;13.60;99.90;;;;;;4994802;28;20424;-72
2021/09/13 07:21:56;;;;;;;6.18;3.00;;;13.50;99.90;;;;;;4993591;28;20023;-72
2021/09/13 07:24:23;;;;;;;3.38;3.08;;;13.50;99.90;;;;;;4993565;28;20121;-72
2021/09/13 07:26:51;;;;;;;5.13;2.75;;;13.40;99.90;;;;;;4994794;28;20026;-72
2021/09/13 07:29:18;;;;;;;7.22;2.75;;;13.30;99.90;;;;;;4994972;28;20022;-73
2021/09/13 07:31:45;;;;;;;7.28;3.58;;;13.30;99.90;;;;;;4995088;28;20181;-72
2021/09/13 07:34:13;;;;;;;4.85;3.22;;;13.30;99.90;;;;;;4993491;28;20117;-71
2021/09/13 07:36:40;;;;;;;4.80;3.00;;;13.30;99.90;;;;;;4993332;28;20583;-73
2021/09/13 07:39:07;;;;;;;3.60;3.30;;;13.30;99.90;;;;;;4993289;28;20022;-72
2021/09/13 07:41:35;;;;;;;3.63;3.30;;;13.30;99.90;;;;;;4993266;28;20018;-72
2021/09/13 07:44:02;;;;;;;3.78;3.45;;;13.20;99.90;;;;;;4993103;28;20102;-72
2021/09/13 07:46:29;;;;;;;6.18;3.22;;;13.20;99.90;;;;;;4994465;28;20026;-71
2021/09/13 07:48:57;;;;;;;7.70;3.28;;;13.10;99.90;;;;;;4994340;28;20022;-73
2021/09/13 07:51:24;;;;;;;6.80;3.30;;;13.30;99.90;;;;;;4994214;28;20019;-72
2021/09/13 07:53:51;;;;;;;5.03;3.05;;;13.30;99.90;;;;;;4994012;28;20498;-72
2021/09/13 07:56:19;;;;;;;3.33;3.13;;;13.30;99.90;;;;;;4993104;28;20018;-74
2021/09/13 07:58:46;;;;;;;4.45;3.13;;;13.50;99.90;;;;;;4993996;28;20025;-72
2021/09/13 08:01:13;;;;;;;5.47;3.58;;;13.60;99.90;;;;;;4994092;28;20022;-72
2021/09/13 08:03:41;;;;;;;3.38;2.80;;;13.60;99.90;;;;;;4992879;28;20030;-74
2021/09/13 08:06:08;;;;;;;5.80;3.25;;;13.40;99.90;;;;;;4994189;28;20368;-74
2021/09/13 08:08:36;;;;;;;6.38;3.08;;;13.30;99.90;;;;;;4993932;28;20055;-74
2021/09/13 08:11:06;;;;;;;9.00;3.65;;;13.30;99.90;;;;;;4992880;28;20537;-74
2021/09/13 08:13:35;;;;;;;4.75;3.10;;;13.10;99.90;;;;;;4994182;28;20027;-74
2021/09/13 08:16:02;;;;;;;5.53;3.00;;;13.10;99.90;;;;;;4993816;28;20018;-72
2021/09/13 08:18:29;;;;;;;4.88;3.67;;;13.10;99.90;;;;;;4992734;28;20018;-73
2021/09/13 08:20:57;;;;;;;5.47;3.40;;;13.00;99.90;;;;;;4993957;28;20475;-73
2021/09/13 08:23:24;;;;;;;8.65;4.25;;;13.00;99.90;;;;;;4993936;28;20026;-72
2021/09/13 08:25:52;;;;;;;5.97;3.47;;;12.90;99.90;;;;;;4992538;28;20030;-73
2021/09/13 08:28:20;;;;;;;7.90;3.70;;;12.90;99.90;;;;;;4993839;28;20022;-72
2021/09/13 08:30:51;;;;;;;4.72;3.30;;;12.90;99.90;;;;;;4992459;28;20431;-72
2021/09/13 08:33:18;;;;;;;5.10;3.80;;;12.90;99.90;;;;;;4993723;28;20026;-73
2021/09/13 08:35:47;;;;;;;7.15;3.97;;;12.90;99.90;;;;;;4992612;28;20030;-72
2021/09/13 08:38:14;;;;;;;7.70;4.78;;;12.80;99.90;;;;;;4992485;28;20057;-75
2021/09/13 08:40:42;;;;;;;7.22;4.13;;;12.80;99.90;;;;;;4993802;28;20168;-72
2021/09/13 08:43:10;;;;;;;5.63;3.90;;;12.70;99.90;;;;;;4993513;28;20026;-74
2021/09/13 08:53:21;;;;;;;5.63;3.90;;;12.60;99.90;;;;;;4993425;28;20037;-74
2021/09/13 08:55:51;;;;;;;8.35;4.22;;;12.60;99.90;;;;;;4993526;28;20321;-73
2021/09/13 08:58:22;;;;;;;7.93;3.28;;;12.50;99.90;;;;;;4993421;28;20101;-74
2021/09/13 09:00:49;;;;;;;;;;;12.50;99.90;;;;;;4992494;28;20026;-73
2021/09/13 09:03:17;;;;;;;4.22;2.63;;;12.50;99.90;;;;;;4991847;28;20004;-77
2021/09/13 09:05:47;;;;;;;3.17;2.70;;;12.40;99.90;;;;;;4991985;28;20080;-76
2021/09/13 09:08:41;;;;;;;2.80;2.60;;;12.40;99.90;;;;;;4991749;28;20113;-74
2021/09/13 09:11:08;;;;;;;2.85;2.63;;;12.40;99.90;;;;;;4989425;28;20455;-74
2021/09/13 09:13:44;;;;;;;3.22;2.88;;;12.40;99.90;;;;;;4992274;28;20018;-74
2021/09/13 09:16:15;;;;;;;3.33;2.97;;;12.30;99.90;;;;;;4991187;28;20029;-74
2021/09/13 09:18:48;;;;;;;4.50;2.97;;;12.20;99.90;;;;;;4991178;28;20482;-74
2021/09/13 09:21:30;;;;;;;4.07;2.90;;;12.20;99.90;;;;;;4991178;28;20030;-75
2021/09/13 09:24:02;;;;;;;4.13;3.15;;;12.20;99.90;;;;;;4990940;28;20503;-73
2021/09/13 09:26:32;;;;;;;5.20;3.50;;;12.20;99.90;;;;;;4992292;28;20034;-73
2021/09/13 09:29:02;;;;;;;4.95;3.70;;;12.20;99.90;;;;;;4977161;28;20580;-74
2021/09/13 09:31:36;;;;;;;3.72;3.45;;;12.10;99.90;;;;;;4994557;28;20022;-73
2021/09/13 09:34:25;;;;;;;4.00;3.40;;;12.10;99.90;;;;;;4995524;28;20029;-72
2021/09/13 09:37:12;;;;;;;3.13;2.95;;;12.10;99.90;;;;;;4994517;28;20430;-74
2021/09/13 09:39:53;;;;;;;6.90;3.03;;;12.10;99.90;;;;;;4995565;28;20022;-74
2021/09/13 09:42:38;;;;;;;3.75;3.25;;;12.10;99.90;;;;;;4995573;28;20026;-74
2021/09/13 09:45:24;;;;;;;4.63;3.40;;;12.10;99.90;;;;;;4995419;28;20022;-72
2021/09/13 09:48:12;;;;;;;6.00;3.08;;;12.10;99.90;;;;;;4995407;28;20019;-73
2021/09/13 09:50:39;;;;;;;3.30;3.00;;;12.20;99.90;;;;;;4994086;28;20022;-72
2021/09/13 09:53:21;;;;;;;3.15;2.90;;;12.30;99.90;;;;;;4994106;28;20376;-73
2021/09/13 09:55:54;;;;;;;5.28;2.83;;;12.40;99.90;;;;;;4995230;28;20486;-75
2021/09/13 09:58:21;;;;;;;5.95;3.25;;;12.40;99.90;;;;;;4995359;28;20072;-73
2021/09/13 10:00:50;;;;;;;2.78;2.53;;;12.40;99.90;;;;;;4995602;28;20029;-76
2021/09/13 10:03:33;;;;;;;2.97;2.60;;;12.40;99.90;;;;;;4995505;28;20018;-74
2021/09/13 10:06:00;;;;;;;3.10;2.50;;;12.50;99.90;;;;;;4995236;28;20553;-72
2021/09/13 10:08:28;;;;;;;6.40;2.90;;;12.60;99.90;;;;;;4853532;28;4110226;-73
2021/09/13 10:10:56;;;;;;;5.03;2.70;;;12.60;99.90;;;;;;4996133;28;20031;-73
2021/09/13 10:13:23;;;;;;;5.13;2.50;;;12.60;99.90;;;;;;4994758;28;20038;-72
2021/09/13 10:15:52;;;;;;;4.10;2.80;;;12.70;99.90;;;;;;4994904;28;20050;-73
2021/09/13 10:18:19;;;;;;;4.65;2.70;;;12.60;99.90;;;;;;4994826;28;20069;-72
2021/09/13 10:20:47;;;;;;;3.45;2.75;;;12.60;99.90;;;;;;4996131;28;20022;-73
2021/09/13 10:23:16;;;;;;;3.17;2.75;;;12.60;99.90;;;;;;4996154;28;20387;-73
2021/09/13 10:25:44;;;;;;;3.65;2.65;;;12.60;99.90;;;;;;4994717;28;20502;-73
2021/09/13 10:28:11;;;;;;;4.60;3.30;;;12.70;99.90;;;;;;4994664;28;20027;-73
2021/09/13 10:30:54;;;;;;;3.58;2.80;;;12.70;99.90;;;;;;4994624;28;20026;-73
2021/09/13 10:33:22;;;;;;;3.10;2.90;;;12.70;99.90;;;;;;4995743;28;20027;-74
2021/09/13 10:35:58;;;;;;;4.72;3.38;;;12.60;99.90;;;;;;4994487;28;20118;-74
2021/09/13 10:38:53;;;;;;;4.93;3.28;;;12.60;99.90;;;;;;4994438;28;20045;-74
2021/09/13 10:41:57;;;;;;;7.38;3.90;;;12.60;99.90;;;;;;4992624;28;20038;-72
2021/09/13 10:44:33;;;;;;;6.82;4.38;;;12.50;99.90;;;;;;4978150;28;20046;-73
2021/09/13 10:47:05;;;;;;;4.85;4.22;;;12.50;99.90;;;;;;4994326;28;20137;-74
2021/09/13 10:49:33;;;;;;;5.50;4.15;;;12.40;99.90;;;;;;4995532;28;20027;-74
2021/09/13 10:52:28;;;;;;;4.43;4.03;;;12.40;99.90;;;;;;4994413;28;20049;-74
2021/09/13 10:55:19;;;;;;;5.70;4.40;;;12.40;99.90;;;;;;4995441;28;20109;-72
2021/09/13 10:58:03;;;;;;;4.65;4.22;;;12.40;99.90;;;;;;4992175;28;20076;-74
2021/09/13 11:00:43;;;;;;;6.20;4.55;;;12.30;99.90;;;;;;4994001;28;20022;-73
2021/09/13 11:03:37;;;;;;;5.28;4.78;;;12.30;99.90;;;;;;4995355;28;20019;-74
2021/09/13 11:08:43;;;;;;;7.88;4.90;;;12.10;99.90;;;;;;4995284;28;20141;-73
2021/09/13 11:11:18;;;;;;;9.57;5.65;;;12.10;99.90;;;;;;4995199;28;20101;-74
2021/09/13 11:13:48;;;;;;;6.63;5.70;;;12.00;99.90;;;;;;4995029;28;20034;-73
2021/09/13 11:16:17;;;;;;;6.63;6.20;;;12.00;99.90;;;;;;4995180;28;20041;-74
2021/09/13 11:18:47;;;;;;;7.80;6.95;;;12.00;99.90;;;;;;4994951;28;20026;-74
2021/09/13 11:21:20;;;;;;;10.03;6.80;;;12.00;99.90;;;;;;4993771;28;20475;-74
2021/09/13 11:23:50;;;;;;;7.15;6.25;;;12.00;99.90;;;;;;4993572;28;20268;-74
2021/09/13 11:26:37;;;;;;;9.90;6.88;;;12.10;99.90;;;;;;4994811;28;20050;-73
2021/09/13 11:29:08;;;;;;;6.85;6.38;;;12.00;99.90;;;;;;4993754;28;20022;-74
2021/09/13 11:31:41;;;;;;;7.18;6.50;;;12.10;99.90;;;;;;4994711;28;20029;-74
2021/09/13 11:34:15;;;;;;;7.35;6.65;;;12.10;99.90;;;;;;4993211;28;20042;-73
2021/09/13 11:36:51;;;;;;;7.68;6.93;;;12.10;99.90;;;;;;4994733;28;20404;-73
2021/09/13 11:39:19;;;;;;;7.35;6.85;;;12.10;99.90;;;;;;4993264;28;20391;-73
2021/09/13 11:41:59;;;;;;;7.55;6.90;;;12.00;99.90;;;;;;4993273;28;20023;-73
2021/09/13 11:44:27;;;;;;;8.32;7.60;;;11.90;99.90;;;;;;4994439;28;20041;-73
2021/09/13 11:46:58;;;;;;;7.47;6.88;;;11.90;99.90;;;;;;4994423;28;20033;-73
2021/09/13 11:49:29;;;;;;;7.60;7.00;;;11.80;99.90;;;;;;4994536;28;20033;-72
2021/09/13 11:52:05;;;;;;;7.75;7.10;;;11.70;99.90;;;;;;4992536;28;20038;-72
2021/09/13 11:54:40;;;;;;;8.52;7.70;;;11.60;99.90;;;;;;4994202;28;20380;-73
2021/09/13 11:57:32;;;;;;;10.98;7.63;;;11.60;99.90;;;;;;4994329;28;20015;-73
2021/09/13 12:00:10;;;;;;;8.10;7.40;;;11.60;99.90;;;;;;4994205;28;20057;-73
2021/09/13 12:02:48;;;;;;;8.13;7.40;;;11.60;99.90;;;;;;4994191;28;20101;-73
2021/09/13 12:05:23;;;;;;;9.48;7.60;;;11.60;99.90;;;;;;4994156;28;20194;-73
2021/09/13 12:07:52;;;;;;;9.50;8.52;;;11.50;99.90;;;;;;4994164;28;20026;-72
2021/09/13 12:10:27;;;;;;;8.55;7.75;;;11.50;99.90;;;;;;4992736;28;20073;-72
2021/09/13 12:13:07;;;;;;;8.98;8.05;;;11.40;99.90;;;;;;4992794;28;20069;-72
2021/09/13 12:15:36;;;;;;;8.38;7.75;;;11.40;99.90;;;;;;4994083;28;20607;-72
2021/09/13 12:18:08;;;;;;;8.10;7.50;;;11.30;99.90;;;;;;4993897;28;20495;-73
2021/09/13 12:20:43;;;;;;;8.27;7.50;;;11.30;99.90;;;;;;4993893;28;20025;-72
2021/09/13 12:23:11;;;;;;;8.43;7.55;;;11.20;99.90;;;;;;4993934;28;20027;-72
2021/09/13 12:25:45;;;;;;;7.90;7.28;;;11.20;99.90;;;;;;4993878;28;20034;-72
2021/09/13 12:28:20;;;;;;;8.30;7.70;;;11.20;99.90;;;;;;4992613;28;20031;-73
2021/09/13 12:30:53;;;;;;;7.80;7.20;;;11.20;99.90;;;;;;4993853;28;20029;-73
2021/09/13 12:33:21;;;;;;;8.00;7.30;;;11.10;99.90;;;;;;4992564;28;20034;-72
2021/09/13 12:35:50;;;;;;;7.75;7.18;;;11.10;99.90;;;;;;4993733;28;20431;-73
2021/09/13 12:38:22;;;;;;;8.65;8.02;;;11.10;99.90;;;;;;4993587;28;20383;-73
2021/09/13 12:40:51;;;;;;;8.02;7.55;;;11.10;99.90;;;;;;4993588;28;20077;-73
2021/09/13 12:43:21;;;;;;;8.57;7.85;;;11.10;99.90;;;;;;4993565;28;20026;-72
2021/09/13 12:45:48;;;;;;;8.68;7.75;;;11.00;99.90;;;;;;4993508;28;20038;-73
2021/09/13 12:48:27;;;;;;;7.85;7.22;;;11.00;99.90;;;;;;4993523;28;20092;-73
2021/09/13 12:50:55;;;;;;;8.05;7.30;;;11.00;99.90;;;;;;4993604;28;20018;-73
2021/09/13 12:53:30;;;;;;;8.15;7.43;;;11.00;99.90;;;;;;4992170;28;20120;-73
2021/09/13 12:56:15;;;;;;;7.90;7.40;;;11.00;99.90;;;;;;4993430;28;20360;-73
2021/09/13 12:58:47;;;;;;;8.13;7.40;;;10.90;99.90;;;;;;4993555;28;20023;-73
2021/09/13 13:01:32;;;;;;;8.57;6.70;;;10.80;99.90;;;;;;4992476;28;20553;-73
2021/09/13 13:04:05;;;;;;;6.85;6.40;;;10.80;99.90;;;;;;4992298;28;20022;-73
2021/09/13 13:06:34;;;;;;;6.78;6.22;;;10.80;99.90;;;;;;4993398;28;20498;-72
2021/09/13 13:09:04;;;;;;;8.25;7.43;;;10.80;99.90;;;;;;4993250;28;20442;-72
2021/09/13 13:11:33;;;;;;;7.30;6.80;;;10.70;99.90;;;;;;4992438;28;20080;-72
2021/09/13 13:14:01;;;;;;;7.80;7.10;;;10.70;99.90;;;;;;4991954;28;20038;-73
2021/09/13 13:16:35;;;;;;;7.63;7.07;;;10.70;99.90;;;;;;4993314;28;20022;-73